Kento Tanaka

Olheiro-Chefe - Nagoya Grampus
17 Abr 2029
Terça-feira
Processo

Personalidade

Adaptabilidade (20) Ambição (15) Controvérsia (3) Lealdade (17) Pressão (3) Profissionalismo (13) Espírito Esportivo (8) Temperamento (18)

Perfil

Estilo de Treinamento Democrático
Licença Continental C
Determinação 13
Gestão de Pessoas 6
Motivação 11
Disciplina 12
Satisfação no Trabalho
100%
Fadiga
0%
Função Olheiro-Chefe
Salário 71.2K p/s
Contrato 14.03.2030

Desempenho

Comportamento Bom
Eficácia do Treinamento
45%
Desenvolvimento do Jogador
25%
Prevenção de Lesões
65%
Implementação Tática
30%

Eventos Recentes

Avaliou um jogador 56d atrás
Participou de uma reunião de recrutamento 56d atrás
Recomendou um alvo de transferência 56d atrás
Recomendou um alvo de transferência 56d atrás
Recomendou um alvo de transferência 56d atrás
Recomendou um alvo de transferência 56d atrás
Apresentou um dossiê à direção 56d atrás

Monitorando agora

79
Jogador Clube Status Habilidade Confiança Observado Última observação Último voto
Yuki Kakita Kashima Antlers Ativo 127 / 132 40% 1 19.02.2029 -
Alejo Veliz Bahia Ativo 131 / 138 40% 1 19.02.2029 -
Daniel Banjaqui Benfica Ativo 150 / 134 40% 2 12.02.2029 -
Sulyman Krubally Burton Albion Negociando 79 / 96 40% 1 12.02.2029 -
Sota Miura Kawasaki Frontale Ativo 140 / 120 40% 1 05.02.2029 -
Joelinton Leeds United Ativo 171 / 164 40% 1 05.02.2029 -
Lucas Jetten KV Oostende Ativo 111 / 118 40% 2 15.01.2029 -
Rafael Mota Sporting CP Ativo 125 / 125 40% 1 15.01.2029 -
Tiago Gordillo San Miguel Ativo 85 / 92 40% 3 10.01.2029 -
Matvey Kuznetsov Spartak Moscow Ativo 104 / 97 40% 1 10.01.2029 -
Jonathan Whiteley Harrogate Town Negociando 74 / 89 40% 1 10.01.2029 -
Federico Nardin Alcione Milano Ativo 124 / 99 40% 1 15.08.2028 -
Honest Ahanor Udinese Ativo 139 / 136 40% 2 27.07.2028 -
Héctor Fort Real Sociedad Ativo 147 / 144 40% 2 24.07.2028 -
Yota Komi Kashiwa Reysol Ativo 122 / 115 40% 1 17.02.2028 -
Ángel Correa Udinese Ativo 142 / 149 40% 1 14.02.2028 -
Miguel Figueiredo Benfica Ativo 116 / 121 40% 2 24.01.2028 -
Alpha Touré FC Metz Ativo 118 / 132 40% 1 09.01.2028 -
Noel Sernelius IFK Norrkoping Ativo 88 / 93 40% 1 09.01.2028 -
Joel McGregor Swindon Town Ativo 85 / 98 40% 1 09.01.2028 -
Mutsuki Kato Sanfrecce Hiroshima Ativo 146 / 138 40% 1 09.01.2028 -
Dato Shengelia Carabobo Ativo 94 / 95 66% 1 05.01.2028 Aprovar
Abeiku Asante Melgar Ativo 109 / 111 66% 1 05.01.2028 Aprovar
Milutin Vidosavljević Partizan Ativo 107 / 108 66% 1 22.07.2027 Aprovar
Fernando Forestieri Ativo 125 / 125 66% 1 22.07.2027 Aprovar
Daniel Dennis Ikorodu City Ativo 109 / 107 40% 1 22.07.2027 -
Kelly Saravanan Salford City Ativo 132 / 117 40% 2 22.02.2027 Mais informações
Yousef Salech Cardiff City Ativo 107 / 110 40% 1 22.02.2027 Mais informações
Hidemasa Morita Hull City Ativo 126 / 146 40% 1 22.02.2027 -
Andy Irving Sparta Prague Ativo 151 / 127 40% 1 22.02.2027 -
Etiosa Ighodaro Kaizer Chiefs Ativo 106 / 108 40% 3 20.02.2027 -
Ronald Swansea City Ativo 143 / 135 40% 1 20.02.2027 -
Batxi Krasnodar Ativo 150 / 137 40% 1 20.02.2027 -
Quentin Boisgard Piast Ativo 137 / 108 40% 1 19.02.2027 -
Santiago Eneme-Bocari Sparta Prague Ativo 115 / 114 40% 1 19.02.2027 -
Awer Mabil Melbourne City Ativo 114 / 138 40% 1 18.02.2027 -
Luis Chávez Dinamo Moscow Ativo 128 / 142 40% 1 18.02.2027 -
Filip Kubala Banik Ostrava Ativo 105 / 128 40% 3 16.02.2027 -
Achraf Bencharki Al Ahly Ativo 122 / 122 40% 2 14.02.2027 -
Ifet Đakovac Vojvodina Ativo 135 / 107 40% 1 14.02.2027 -
Emmanuel Boateng Hapoel Tel Aviv Ativo 117 / 113 40% 1 14.02.2027 -
Marek Havlík Slovacko Ativo 110 / 126 40% 1 13.02.2027 -
Perry Ng Cardiff City Ativo 103 / 106 40% 1 13.02.2027 -
Duncan Watmore Rotherham United Ativo 118 / 119 40% 2 08.02.2027 -
Giacomo Zecca Torres Ativo 119 / 119 40% 1 08.02.2027 -
Tomáš Chorý Slavia Prague Ativo 158 / 144 40% 1 07.02.2027 -
Jerome Karelse Golden Arrows Ativo 100 / 103 40% 1 07.02.2027 -
Ioannis Pittas CSKA Sofia Ativo 133 / 118 40% 1 05.02.2027 -
Aubrey Modiba Mamelodi Sundowns Ativo 109 / 117 40% 1 01.02.2027 -
Matyáš Kozák Teplice Ativo 98 / 101 40% 1 31.01.2027 -
Aaron Drinan Swindon Town Ativo 120 / 100 40% 1 31.01.2027 -
Alexis Alégué Zbrojovka Brno Ativo 109 / 111 40% 1 31.01.2027 -
Yehor Tverdokhlib LNZ Ativo 103 / 126 40% 1 31.01.2027 -
Iuri Medeiros Ujpest Ativo 126 / 126 40% 2 29.01.2027 -
Mohamed Konaté Akhmat Grozny Ativo 102 / 121 40% 1 29.01.2027 -
Bruno Almeida AEL Ativo 137 / 124 40% 1 27.01.2027 -
Zizo Al Ahly Ativo 144 / 117 40% 2 24.01.2027 -
Kubrat Onasci Septemvri Ativo 111 / 105 40% 1 24.01.2027 -
James Dornelly Peterborough United Ativo 107 / 123 40% 1 24.01.2027 -
Patrik Wålemark Lech Ativo 125 / 140 40% 1 22.01.2027 -
Jiří Boula Banik Ostrava Ativo 122 / 114 40% 1 22.01.2027 -
Conrad Wallem Banik Ostrava Ativo 111 / 137 40% 1 21.01.2027 -
Petr Ševčík Zbrojovka Brno Ativo 116 / 129 40% 1 21.01.2027 -
Fred Onyedinma Burton Albion Ativo 105 / 113 40% 1 20.01.2027 -
Oleksandr Nazarenko Polissia Ativo 115 / 124 40% 1 18.01.2027 -
Riccardo De Zen Renate Ativo 84 / 104 40% 2 17.01.2027 -
Jed Wallace West Bromwich Albion Ativo 133 / 114 40% 1 17.01.2027 -
Marcelino Moreno Lanús Ativo 126 / 133 40% 1 16.01.2027 -
Diego García Partizan Ativo 116 / 130 40% 1 14.01.2027 -
Xeber Alkain Karpaty Ativo 142 / 120 40% 1 14.01.2027 -
Lukáš Sadílek Gornik Zabrze Ativo 126 / 120 40% 1 13.01.2027 -
Sayfallah Ltaief Cracovia Ativo 111 / 108 40% 1 13.01.2027 -
Saleh Abu Al-Shamat Zamalek Ativo 106 / 133 40% 1 12.01.2027 -
Dejan Zukić Vojvodina Ativo 114 / 128 40% 1 12.01.2027 -
Bongani Mothiba CSKA Moscow Ativo 142 / 135 40% 1 11.01.2027 -
Kazunari Kita Real Sociedad Ativo 100 / 113 40% 1 10.01.2027 -
Jeffrey Annan Hasaacas Ativo 74 / 94 40% 1 09.01.2027 -
Daniel Vernattus Metalist Ativo 110 / 113 40% 1 07.01.2027 -
Yuma Suzuki Kashima Antlers Ativo 144 / 126 40% 1 02.08.2026 -